Risca, United Kingdom
Current Conditions -  °F | °C
As of 1:50 AM on Thursday 27 Nov 2014 (Local Time) from EGFF Reporting Station
Moderate Fog Moderate Fog  
Wind Chill: 45°   Ceiling: 1500
Heat Index: 45°   Visibility: 0.5mi
Dew Point: 45°   Wind: 3mph
Humidity: 100%   Direction: 50°NE
Pressure: 29.71"   Gusts: NA
Location:  51.61°N, 3.1°W
Report Text: EGFF 270150Z 05003KT 0800 R12/P1500 FG SCT006 BKN015 OVC024 07/07 Q1006
Loading
Personal Weather Stations






























Interactive Weather Map New forecast layout! Learn more

10-Day Weather Forecast

Advertisements
Track Severe Weather on mobile